createdAt,value
2018-06-10T00:02:23.618Z,36.33
2018-06-10T00:04:51.279Z,33.57
2018-06-10T00:07:18.711Z,34.20
2018-06-10T00:09:48.075Z,35.10
2018-06-10T00:12:20.259Z,33.63
2018-06-10T00:14:48.503Z,34.30
2018-06-10T00:17:16.787Z,35.87
2018-06-10T00:19:48.744Z,35.80
2018-06-10T00:22:20.715Z,31.40
2018-06-10T00:24:48.151Z,32.57
2018-06-10T00:37:01.786Z,29.57
2018-06-10T00:39:35.729Z,35.70
2018-06-10T00:42:04.125Z,33.10
2018-06-10T00:44:32.333Z,32.73
2018-06-10T00:47:00.244Z,33.23
2018-06-10T00:49:32.926Z,32.03
2018-06-10T00:52:01.415Z,29.37
2018-06-10T00:54:32.979Z,30.50
2018-06-10T00:57:01.391Z,32.57
2018-06-10T00:59:28.848Z,31.57
2018-06-10T01:02:00.494Z,30.40
2018-06-10T01:04:30.064Z,30.93
2018-06-10T01:06:58.373Z,32.80
2018-06-10T01:09:27.616Z,34.00
2018-06-10T01:12:01.709Z,32.77
2018-06-10T01:14:34.551Z,32.67
2018-06-10T01:17:03.626Z,34.93
2018-06-10T01:19:32.708Z,35.17
2018-06-10T01:22:00.515Z,32.70
2018-06-10T01:24:27.904Z,31.80
2018-06-10T01:26:55.967Z,34.30
2018-06-10T01:29:28.768Z,35.70
2018-06-10T01:31:58.052Z,32.70
2018-06-10T01:34:25.493Z,32.00
2018-06-10T01:36:53.622Z,31.97
2018-06-10T01:39:25.928Z,31.85
2018-06-10T01:41:54.062Z,32.55
2018-06-10T01:44:21.471Z,29.98
2018-06-10T01:46:49.018Z,30.07
2018-06-10T01:49:16.472Z,32.10
2018-06-10T01:51:44.949Z,30.97
2018-06-10T01:56:46.413Z,31.60
2018-06-10T01:59:13.794Z,33.23
2018-06-10T02:01:41.195Z,29.20
2018-06-10T02:04:08.659Z,29.82
2018-06-10T02:06:37.839Z,30.40
2018-06-10T02:09:07.107Z,32.00
2018-06-10T02:11:34.911Z,28.73
2018-06-10T02:14:02.901Z,30.90
2018-06-10T02:16:31.502Z,29.50
2018-06-10T02:19:00.206Z,29.77
2018-06-10T02:21:28.313Z,28.52
2018-06-10T02:23:56.965Z,29.52
2018-06-10T02:36:10.240Z,30.17
2018-06-10T02:38:41.774Z,32.58
2018-06-10T02:41:09.159Z,35.50
2018-06-10T02:43:37.868Z,35.13
2018-06-10T02:46:05.908Z,36.25
2018-06-10T02:48:37.647Z,33.58
2018-06-10T02:51:06.460Z,35.85
2018-06-10T02:53:34.264Z,32.85
2018-06-10T02:56:03.425Z,34.63
2018-06-10T02:58:32.046Z,34.20
2018-06-10T03:00:59.814Z,32.53
2018-06-10T03:03:27.640Z,30.70
2018-06-10T03:05:55.834Z,31.23
2018-06-10T03:08:25.190Z,30.48
2018-06-10T03:10:54.978Z,30.15
2018-06-10T03:13:23.238Z,31.95
2018-06-10T03:25:44.471Z,27.70
2018-06-10T03:28:17.280Z,29.20
2018-06-10T03:30:54.225Z,28.47
2018-06-10T03:33:22.374Z,28.25
2018-06-10T03:35:58.263Z,28.50
2018-06-10T03:38:25.868Z,27.70
2018-06-10T03:40:58.071Z,27.40
2018-06-10T03:43:25.855Z,25.85
2018-06-10T03:45:53.546Z,26.73
2018-06-10T03:48:29.492Z,25.95
2018-06-10T03:50:57.700Z,24.05
2018-06-10T03:53:25.831Z,24.37
2018-06-10T03:55:53.245Z,24.92
2018-06-10T04:08:10.303Z,23.77
2018-06-10T04:10:39.624Z,25.68
2018-06-10T04:13:09.340Z,28.52
2018-06-10T04:15:37.572Z,26.37
2018-06-10T04:18:05.584Z,27.50
2018-06-10T04:20:33.703Z,25.97
2018-06-10T04:23:05.454Z,25.70
2018-06-10T04:25:34.928Z,26.07
2018-06-10T04:28:02.526Z,25.75
2018-06-10T04:30:30.164Z,26.48
2018-06-10T04:42:51.578Z,26.20
2018-06-10T04:45:19.851Z,29.85
2018-06-10T04:47:47.226Z,28.40
2018-06-10T04:50:14.633Z,28.02
2018-06-10T04:52:46.533Z,28.20
2018-06-10T04:55:15.325Z,31.42
2018-06-10T04:57:43.618Z,30.27
2018-06-10T05:00:16.087Z,28.65
2018-06-10T05:12:32.889Z,33.13
2018-06-10T05:24:45.392Z,33.13
2018-06-10T05:27:15.841Z,34.60
2018-06-10T05:29:45.668Z,33.02
2018-06-10T05:32:17.956Z,34.85
2018-06-10T05:34:47.314Z,34.03
2018-06-10T05:37:16.307Z,34.05
2018-06-10T05:39:44.118Z,34.00
2018-06-10T05:42:16.341Z,34.03
2018-06-10T05:44:44.476Z,33.60
2018-06-10T05:47:13.102Z,32.65
2018-06-10T05:49:40.830Z,31.90
2018-06-10T05:52:09.066Z,33.90
2018-06-10T05:54:38.318Z,35.13
2018-06-10T06:06:50.761Z,30.95
2018-06-10T06:09:18.531Z,31.85
2018-06-10T06:11:45.926Z,34.33
2018-06-10T06:14:13.272Z,30.40
2018-06-10T06:16:40.578Z,29.80
2018-06-10T06:19:07.859Z,30.05
2018-06-10T06:21:35.200Z,30.30
2018-06-10T06:24:02.544Z,30.77
2018-06-10T06:26:29.874Z,31.10
2018-06-10T06:28:57.279Z,28.98
2018-06-10T06:31:24.603Z,29.00
2018-06-10T06:33:52.040Z,29.23
2018-06-10T06:36:19.746Z,31.77
2018-06-10T06:38:47.116Z,32.43
2018-06-10T06:41:14.448Z,29.60
2018-06-10T06:43:41.747Z,30.10
2018-06-10T06:46:09.053Z,30.97
2018-06-10T06:48:36.362Z,30.20
2018-06-10T06:51:03.706Z,28.50
2018-06-10T06:53:31.056Z,29.70
2018-06-10T06:55:58.380Z,29.50
2018-06-10T06:58:25.735Z,28.60
2018-06-10T07:00:53.026Z,29.37
2018-06-10T07:03:20.410Z,33.05
2018-06-10T07:05:47.721Z,28.73
2018-06-10T07:08:15.086Z,29.50
2018-06-10T07:10:42.422Z,29.87
2018-06-10T07:13:09.852Z,29.27
2018-06-10T07:15:37.144Z,29.30
2018-06-10T07:18:04.497Z,30.08
2018-06-10T07:20:31.820Z,26.93
2018-06-10T07:22:59.157Z,28.63
2018-06-10T07:25:26.473Z,27.67
2018-06-10T07:27:53.799Z,27.73
2018-06-10T07:30:21.124Z,28.20
2018-06-10T07:32:48.436Z,26.57
2018-06-10T07:35:15.779Z,27.07
2018-06-10T07:37:43.085Z,27.60
2018-06-10T07:40:10.435Z,28.07
2018-06-10T07:42:37.755Z,26.67
2018-06-10T07:45:05.170Z,28.20
2018-06-10T07:47:32.656Z,29.30
2018-06-10T07:49:59.991Z,27.87
2018-06-10T07:52:27.593Z,28.37
2018-06-10T07:54:54.940Z,26.70
2018-06-10T07:57:22.302Z,26.17
2018-06-10T07:59:49.609Z,24.37
2018-06-10T08:02:17.091Z,24.73
2018-06-10T08:04:44.374Z,26.47
2018-06-10T08:07:11.739Z,25.70
2018-06-10T08:09:39.140Z,24.93
2018-06-10T08:12:06.549Z,25.63
2018-06-10T08:14:33.891Z,26.67
2018-06-10T08:17:01.300Z,23.17
2018-06-10T08:19:29.815Z,23.40
2018-06-10T08:21:57.187Z,23.63
2018-06-10T08:24:24.580Z,23.20
2018-06-10T08:26:51.936Z,23.37
2018-06-10T08:29:19.278Z,22.77
2018-06-10T08:31:46.649Z,21.30
2018-06-10T08:34:14.026Z,19.67
2018-06-10T08:36:41.360Z,19.30
2018-06-10T08:39:08.702Z,21.80
2018-06-10T08:41:36.175Z,21.00
2018-06-10T08:44:03.560Z,20.67
2018-06-10T08:46:31.055Z,21.73
2018-06-10T08:48:58.394Z,22.00
2018-06-10T08:51:26.393Z,20.63
2018-06-10T08:53:53.723Z,21.33
2018-06-10T08:56:21.072Z,19.00
2018-06-10T08:58:48.449Z,23.20
2018-06-10T09:01:15.787Z,22.77
2018-06-10T09:03:43.156Z,20.37
2018-06-10T09:06:10.486Z,20.13
2018-06-10T09:08:37.850Z,19.03
2018-06-10T09:11:05.195Z,18.90
2018-06-10T09:13:32.575Z,19.13
2018-06-10T09:15:59.972Z,20.40
2018-06-10T09:18:27.348Z,20.37
2018-06-10T09:20:54.783Z,18.60
2018-06-10T09:23:22.112Z,16.77
2018-06-10T09:25:49.532Z,16.43
2018-06-10T09:28:16.923Z,16.83
2018-06-10T09:30:44.287Z,17.50
2018-06-10T09:33:11.725Z,17.40
2018-06-10T09:35:39.302Z,16.27
2018-06-10T09:38:06.684Z,17.07
2018-06-10T09:40:34.388Z,15.20
2018-06-10T09:43:01.839Z,16.50
2018-06-10T09:45:29.185Z,16.67
2018-06-10T09:47:56.604Z,15.97
2018-06-10T09:50:24.132Z,13.60
2018-06-10T09:52:51.515Z,12.03
2018-06-10T09:55:18.968Z,13.50
2018-06-10T09:57:46.316Z,13.70
2018-06-10T10:00:18.108Z,14.90
2018-06-10T10:02:45.525Z,14.77
2018-06-10T10:05:12.861Z,13.13
2018-06-10T10:07:40.225Z,13.60
2018-06-10T10:10:07.620Z,14.67
2018-06-10T10:12:35.026Z,15.47
2018-06-10T10:15:02.449Z,15.07
2018-06-10T10:17:29.851Z,15.37
2018-06-10T10:19:57.197Z,15.17
2018-06-10T10:22:24.631Z,15.00
2018-06-10T10:24:52.626Z,16.53
2018-06-10T10:27:19.988Z,18.47
2018-06-10T10:29:47.356Z,18.77
2018-06-10T10:32:14.724Z,18.43
2018-06-10T10:34:42.124Z,19.30
2018-06-10T10:37:09.485Z,22.90
2018-06-10T10:39:36.909Z,23.67
2018-06-10T10:42:04.385Z,23.60
2018-06-10T10:44:31.836Z,23.90
2018-06-10T10:46:59.196Z,23.33
2018-06-10T10:49:26.605Z,23.50
2018-06-10T10:51:54.044Z,20.00
2018-06-10T10:54:21.435Z,20.50
2018-06-10T10:56:49.413Z,21.40
2018-06-10T10:59:19.376Z,21.30
2018-06-10T11:01:52.301Z,20.57
2018-06-10T11:04:20.562Z,22.60
2018-06-10T11:19:48.595Z,19.53
2018-06-10T11:22:21.264Z,18.60
2018-06-10T11:24:53.739Z,18.40
2018-06-10T11:27:22.115Z,17.70
2018-06-10T11:29:53.897Z,18.80
2018-06-10T11:32:21.579Z,17.10
2018-06-10T11:34:51.040Z,17.30
2018-06-10T11:50:18.588Z,10.57
2018-06-10T11:52:48.017Z,12.40
2018-06-10T11:55:18.330Z,13.63
2018-06-10T11:57:45.775Z,15.03
2018-06-10T12:00:13.904Z,13.30
2018-06-10T12:02:41.453Z,14.33
2018-06-10T12:05:08.841Z,11.30
2018-06-10T12:07:36.219Z,11.27
2018-06-10T12:10:03.682Z,11.83
2018-06-10T12:12:31.054Z,12.00
2018-06-10T12:14:58.457Z,13.53
2018-06-10T12:17:25.885Z,13.60
2018-06-10T12:19:53.267Z,15.07
2018-06-10T12:22:20.667Z,14.37
2018-06-10T12:24:48.042Z,13.93
2018-06-10T12:27:15.528Z,14.40
2018-06-10T12:29:42.959Z,14.23
2018-06-10T12:32:10.362Z,12.70
2018-06-10T12:34:37.809Z,13.70
2018-06-10T12:37:05.411Z,15.17
2018-06-10T12:39:32.890Z,16.10
2018-06-10T12:42:00.305Z,14.90
2018-06-10T12:44:27.748Z,15.40
2018-06-10T12:46:55.306Z,16.30
2018-06-10T12:49:22.740Z,15.40
2018-06-10T12:51:50.043Z,15.77
2018-06-10T12:54:19.381Z,15.57
2018-06-10T12:56:46.788Z,14.33
2018-06-10T12:59:14.231Z,15.53
2018-06-10T13:01:41.614Z,14.97
2018-06-10T13:04:09.131Z,15.57
2018-06-10T13:06:37.165Z,16.37
2018-06-10T13:09:06.210Z,15.60
2018-06-10T13:11:33.696Z,15.30
2018-06-10T13:14:01.038Z,14.33
2018-06-10T13:16:28.397Z,13.83
2018-06-10T13:18:55.855Z,15.20
2018-06-10T13:21:23.208Z,15.03
2018-06-10T13:23:50.820Z,15.50
2018-06-10T13:26:18.220Z,15.20
2018-06-10T13:28:46.402Z,14.97
2018-06-10T13:31:14.517Z,14.90
2018-06-10T13:33:42.257Z,15.13
2018-06-10T13:36:09.639Z,16.00
2018-06-10T13:38:37.018Z,15.90
2018-06-10T13:41:04.485Z,16.70
2018-06-10T13:43:31.816Z,15.67
2018-06-10T13:45:59.237Z,15.10
2018-06-10T13:48:26.580Z,15.30
2018-06-10T13:50:53.950Z,14.70
2018-06-10T13:53:21.270Z,15.50
2018-06-10T13:55:48.637Z,17.10
2018-06-10T13:58:15.988Z,16.60
2018-06-10T14:00:44.037Z,16.80
2018-06-10T14:03:11.333Z,16.90
2018-06-10T14:05:38.702Z,18.00
2018-06-10T14:08:06.120Z,17.80
2018-06-10T14:10:33.502Z,16.43
2018-06-10T14:13:00.856Z,17.83
2018-06-10T14:15:28.253Z,17.13
2018-06-10T14:17:55.578Z,17.20
2018-06-10T14:20:23.062Z,16.30
2018-06-10T14:22:51.053Z,17.17
2018-06-10T14:25:18.408Z,17.03
2018-06-10T14:27:45.776Z,17.97
2018-06-10T14:30:14.012Z,15.03
2018-06-10T14:32:41.369Z,16.90
2018-06-10T14:35:08.823Z,15.27
2018-06-10T14:47:21.331Z,16.00
2018-06-10T14:49:48.784Z,15.80
2018-06-10T14:52:16.522Z,14.37
2018-06-10T14:54:44.048Z,14.53
2018-06-10T14:57:11.396Z,19.80
2018-06-10T14:59:38.775Z,16.60
2018-06-10T15:02:06.144Z,17.10
2018-06-10T15:04:33.493Z,16.03
2018-06-10T15:07:00.964Z,17.10
2018-06-10T15:09:28.337Z,18.10
2018-06-10T15:11:55.745Z,16.90
2018-06-10T15:14:23.064Z,18.60
2018-06-10T15:16:50.507Z,16.67
2018-06-10T15:19:17.919Z,15.57
2018-06-10T15:21:45.372Z,16.70
2018-06-10T15:24:12.795Z,17.43
2018-06-10T15:26:40.108Z,16.80
2018-06-10T15:29:07.507Z,16.53
2018-06-10T15:31:34.830Z,15.57
2018-06-10T15:34:02.269Z,17.40
2018-06-10T15:36:29.623Z,16.20
2018-06-10T15:38:57.028Z,16.10
2018-06-10T15:41:24.490Z,18.77
2018-06-10T15:43:51.871Z,14.50
2018-06-10T15:46:19.277Z,16.60
2018-06-10T15:48:46.752Z,16.63
2018-06-10T15:51:14.131Z,17.97
2018-06-10T15:53:41.474Z,16.97
2018-06-10T15:56:08.909Z,16.57
2018-06-10T15:58:36.229Z,18.00
2018-06-10T16:01:03.849Z,17.40
2018-06-10T16:03:31.336Z,18.80
2018-06-10T16:05:58.752Z,18.20
2018-06-10T16:08:26.145Z,19.00
2018-06-10T16:10:53.959Z,19.23
2018-06-10T16:13:21.397Z,20.57
2018-06-10T16:15:48.810Z,19.03
2018-06-10T16:18:16.352Z,18.50
2018-06-10T16:20:43.698Z,18.80
2018-06-10T16:23:11.152Z,18.70
2018-06-10T16:25:38.570Z,18.00
2018-06-10T16:28:05.987Z,17.17
2018-06-10T16:30:33.373Z,16.93
2018-06-10T16:33:00.797Z,16.07
2018-06-10T16:35:28.204Z,18.00
2018-06-10T16:37:55.532Z,16.33
2018-06-10T16:40:22.877Z,15.10
2018-06-10T16:42:50.253Z,17.27
2018-06-10T16:45:17.766Z,16.23
2018-06-10T16:47:45.093Z,15.93
2018-06-10T16:50:12.937Z,14.73
2018-06-10T16:52:40.327Z,15.07
2018-06-10T16:55:07.754Z,16.63
2018-06-10T16:57:35.390Z,16.77
2018-06-10T17:00:02.869Z,16.93
2018-06-10T17:02:30.215Z,15.47
2018-06-10T17:04:57.552Z,16.40
2018-06-10T17:07:24.952Z,14.60
2018-06-10T17:09:52.308Z,15.40
2018-06-10T17:12:19.681Z,17.87
2018-06-10T17:14:47.049Z,14.43
2018-06-10T17:17:16.085Z,17.37
2018-06-10T17:19:43.491Z,15.77
2018-06-10T17:22:10.906Z,14.80
2018-06-10T17:24:38.291Z,16.20
2018-06-10T17:27:05.667Z,15.70
2018-06-10T17:29:33.203Z,15.90
2018-06-10T17:32:01.601Z,16.07
2018-06-10T17:34:29.038Z,14.90
2018-06-10T17:36:57.052Z,15.47
2018-06-10T17:39:24.520Z,16.27
2018-06-10T17:41:56.727Z,16.80
2018-06-10T17:44:25.016Z,17.23
2018-06-10T17:46:52.519Z,18.60
2018-06-10T17:49:19.957Z,16.87
2018-06-10T17:51:47.577Z,18.10
2018-06-10T17:54:15.233Z,18.10
2018-06-10T17:56:47.346Z,17.57
2018-06-10T17:59:15.301Z,18.70
2018-06-10T18:11:30.452Z,14.50
2018-06-10T18:13:59.662Z,15.70
2018-06-10T18:16:29.431Z,14.77
2018-06-10T18:19:01.887Z,14.30
2018-06-10T18:21:32.636Z,15.90
2018-06-10T18:24:01.049Z,14.80
2018-06-10T18:26:31.540Z,15.70
2018-06-10T18:29:00.002Z,15.33
2018-06-10T18:31:32.297Z,14.73
2018-06-10T18:33:59.904Z,14.73
2018-06-10T18:36:28.298Z,13.90
2018-06-10T18:38:56.566Z,14.30
2018-06-10T18:41:25.250Z,13.87
2018-06-10T18:43:53.539Z,13.13
2018-06-10T18:46:21.518Z,14.57
2018-06-10T18:48:50.298Z,14.17
2018-06-10T18:51:18.921Z,14.20
2018-06-10T18:53:46.450Z,13.80
2018-06-10T18:56:14.043Z,12.90
2018-06-10T18:58:43.058Z,14.40
2018-06-10T19:01:15.516Z,13.77
2018-06-10T19:03:50.633Z,14.33
2018-06-10T19:06:20.623Z,14.47
2018-06-10T19:08:50.514Z,14.57
2018-06-10T19:11:18.214Z,13.07
2018-06-10T19:13:45.892Z,14.77
2018-06-10T19:16:20.873Z,14.43
2018-06-10T19:18:50.082Z,14.13
2018-06-10T19:21:18.878Z,12.73
2018-06-10T19:23:47.170Z,14.90
2018-06-10T19:26:14.964Z,13.40
2018-06-10T19:28:42.708Z,15.27
2018-06-10T19:31:15.720Z,14.60
2018-06-10T19:33:54.991Z,14.67
2018-06-10T19:36:31.285Z,14.60
2018-06-10T19:38:58.881Z,14.87
2018-06-10T19:41:26.964Z,14.10
2018-06-10T19:43:54.572Z,14.17
2018-06-10T19:46:30.232Z,16.27
2018-06-10T19:48:58.828Z,16.27
2018-06-10T19:51:29.290Z,17.40
2018-06-10T19:54:05.719Z,17.90
2018-06-10T19:56:37.622Z,19.80
2018-06-10T19:59:13.022Z,17.37
2018-06-10T20:11:26.362Z,19.40
2018-06-10T20:13:56.375Z,19.27
2018-06-10T20:16:24.259Z,19.47
2018-06-10T20:18:51.765Z,20.10
2018-06-10T20:21:19.776Z,20.17
2018-06-10T20:23:52.135Z,20.63
2018-06-10T20:26:19.797Z,20.00
2018-06-10T20:28:47.380Z,22.40
2018-06-10T20:31:15.563Z,22.80
2018-06-10T20:33:43.184Z,22.60
2018-06-10T20:36:12.260Z,23.07
2018-06-10T20:38:40.780Z,21.17
2018-06-10T20:41:17.286Z,22.30
2018-06-10T20:53:30.977Z,22.87
2018-06-10T20:55:58.497Z,22.02
2018-06-10T20:58:28.830Z,21.73
2018-06-10T21:00:56.334Z,21.50
2018-06-10T21:03:24.127Z,18.98
2018-06-10T21:05:51.583Z,19.62
2018-06-10T21:08:21.292Z,19.25
2018-06-10T21:10:49.432Z,17.83
2018-06-10T21:13:20.359Z,18.87
2018-06-10T21:15:48.132Z,19.03
2018-06-10T21:18:17.574Z,19.50
2018-06-10T21:20:46.733Z,17.90
2018-06-10T21:23:18.731Z,17.45
2018-06-10T21:25:46.877Z,16.70
2018-06-10T21:28:14.562Z,17.55
2018-06-10T21:30:42.118Z,19.80
2018-06-10T21:33:09.624Z,17.82
2018-06-10T21:35:41.938Z,17.10
2018-06-10T21:38:09.856Z,18.95
2018-06-10T21:40:37.748Z,18.92
2018-06-10T21:43:06.138Z,18.45
2018-06-10T21:45:37.648Z,19.02
2018-06-10T21:48:07.602Z,18.77
2018-06-10T21:50:35.325Z,20.02
2018-06-10T21:53:06.796Z,16.82
2018-06-10T21:55:34.981Z,18.77
2018-06-10T21:58:06.915Z,18.42
2018-06-10T22:00:34.996Z,17.87
2018-06-10T22:03:03.446Z,17.80
2018-06-10T22:05:30.902Z,18.15
2018-06-10T22:08:02.868Z,18.37
2018-06-10T22:20:15.424Z,20.00
2018-06-10T22:35:48.751Z,19.70
2018-06-10T22:38:17.002Z,18.73
2018-06-10T22:40:44.486Z,18.48
2018-06-10T22:43:17.427Z,18.95
2018-06-10T22:45:45.249Z,19.45
2018-06-10T22:48:14.340Z,20.70
2018-06-10T22:50:42.488Z,20.00
2018-06-10T22:53:17.303Z,19.32
2018-06-10T22:55:46.423Z,19.95
2018-06-10T22:58:13.850Z,19.60
2018-06-10T23:00:42.732Z,18.98
2018-06-10T23:03:10.635Z,20.23
2018-06-10T23:05:41.168Z,18.02
2018-06-10T23:08:09.587Z,20.27
2018-06-10T23:10:37.389Z,19.40
2018-06-10T23:13:04.827Z,19.30
2018-06-10T23:15:32.524Z,19.10
2018-06-10T23:18:01.309Z,20.08
2018-06-10T23:20:29.732Z,20.95
2018-06-10T23:22:57.234Z,18.57
2018-06-10T23:25:26.229Z,18.80
2018-06-10T23:27:53.714Z,19.85
2018-06-10T23:30:21.660Z,19.92
2018-06-10T23:32:49.048Z,18.92
2018-06-10T23:35:21.748Z,18.82
2018-06-10T23:37:51.738Z,19.00
2018-06-10T23:40:19.869Z,21.05
2018-06-10T23:42:51.863Z,20.35
2018-06-10T23:45:20.483Z,20.27
2018-06-10T23:47:54.159Z,20.43
2018-06-10T23:50:22.444Z,19.50
2018-06-10T23:52:49.913Z,19.75
2018-06-10T23:55:17.418Z,19.10
2018-06-10T23:57:44.981Z,20.90
